»·PEaware :: N417K KSNA-KCRQ

N417K :: KSNA-KCRQ

FLIGHT INFORMATION

Flight Status: Arrived
Operator: Privately registered:
United States
More flights under this callsign
Pilot: Corey G. (17774)
Aircraft: BEECH AIRCRAFT BONANZA
(BE36)
More flights by this aircraft type
Origin: KSNA John Wayne-Orange Co
United States
Destination: KCRQ McClellan-Palomar
United States
More flights between these airports :: More routes between these airports
Route: V23 OCN
File this flight plan on PilotEdge
Remarks: I-2 CERT
Altitude:
(Current/Filed)
5,000ft
Speed:
(Current/Filed)
150kts
Departed: 10-Jan-18 11:12 AM
Arrived: 10-Jan-18 11:50 AM
Distance/Time
Traveled:
44nm/0:37
Distance/Time
To Go:
Arrived

Flight Plot

Page will automatically refresh every two minutes.


Map Options




Map Legend


Flown Route
Filed Route
Departure Airport
Arrival Airport
Navaid (VOR, NDB)
Fix

Horizontal Profiles

Position Reports

Time Latitude Longitude Heading Altitude Ground
Speed
10-Jan-18 10:58 33.668113 -117.875202 27 60ft 0kts
10-Jan-18 10:59 33.668113 -117.875202 27 60ft 0kts
10-Jan-18 11:00 33.668113 -117.875202 27 60ft 0kts
10-Jan-18 11:01 33.668113 -117.875202 27 60ft 0kts
10-Jan-18 11:02 33.668113 -117.875202 27 60ft 0kts
10-Jan-18 11:03 33.668113 -117.875202 27 60ft 0kts
10-Jan-18 11:04 33.668113 -117.875202 27 60ft 0kts
10-Jan-18 11:05 33.668113 -117.875202 27 60ft 0kts
10-Jan-18 11:06 33.668113 -117.875202 27 60ft 0kts
10-Jan-18 11:07 33.668113 -117.875202 27 60ft 0kts
10-Jan-18 11:08 33.668113 -117.875202 27 60ft 0kts
10-Jan-18 11:09 33.668113 -117.875202 27 60ft 0kts
10-Jan-18 11:10 33.668113 -117.875202 27 60ft 0kts
10-Jan-18 11:11 33.668113 -117.875202 27 60ft 0kts
10-Jan-18 11:12 33.668783 -117.874723 24 60ft 10kts
10-Jan-18 11:13 33.672216 -117.872542 28 60ft 19kts
10-Jan-18 11:14 33.676475 -117.869849 28 60ft 20kts
10-Jan-18 11:15 33.680925 -117.867239 24 60ft 17kts
10-Jan-18 11:16 33.681239 -117.866418 118 60ft 0kts
10-Jan-18 11:17 33.681239 -117.866418 118 60ft 0kts
10-Jan-18 11:18 33.678057 -117.867314 208 60ft 72kts
10-Jan-18 11:19 33.654619 -117.878214 187 955ft 128kts
10-Jan-18 11:20 33.624974 -117.881831 186 2404ft 113kts
10-Jan-18 11:21 33.594798 -117.884373 187 3593ft 117kts
10-Jan-18 11:22 33.562458 -117.885925 187 4674ft 120kts
10-Jan-18 11:23 33.538814 -117.859010 112 5242ft 166kts
10-Jan-18 11:24 33.523697 -117.805788 111 5232ft 187kts
10-Jan-18 11:25 33.509012 -117.755923 111 5230ft 184kts
10-Jan-18 11:26 33.492032 -117.707688 131 5221ft 181kts
10-Jan-18 11:27 33.465071 -117.675131 144 5228ft 180kts
10-Jan-18 11:28 33.437807 -117.643402 133 5237ft 180kts
10-Jan-18 11:29 33.413875 -117.611149 135 5244ft 179kts
10-Jan-18 11:30 33.388485 -117.580308 134 5239ft 178kts
10-Jan-18 11:31 33.363237 -117.553278 140 5241ft 178kts
10-Jan-18 11:32 33.338275 -117.529279 136 5239ft 177kts
10-Jan-18 11:33 33.313964 -117.503121 133 5024ft 185kts
10-Jan-18 11:34 33.294820 -117.473371 101 5002ft 170kts
10-Jan-18 11:35 33.286875 -117.440532 101 4999ft 166kts
10-Jan-18 11:36 33.278776 -117.406556 101 4998ft 162kts
10-Jan-18 11:37 33.271357 -117.375215 101 4998ft 158kts
10-Jan-18 11:38 33.263173 -117.340536 101 4998ft 156kts
10-Jan-18 11:39 33.255673 -117.309279 101 4998ft 158kts
10-Jan-18 11:40 33.248376 -117.279103 101 4997ft 160kts
10-Jan-18 11:41 33.240583 -117.246753 101 4996ft 166kts
10-Jan-18 11:42 33.232887 -117.214431 101 4994ft 169kts
10-Jan-18 11:43 33.224896 -117.180432 101 4993ft 171kts
10-Jan-18 11:44 33.218036 -117.143391 96 4992ft 171kts
10-Jan-18 11:45 33.212254 -117.105588 96 4991ft 172kts
10-Jan-18 11:46 33.206605 -117.066792 96 4994ft 174kts
10-Jan-18 11:47 33.201740 -117.030922 96 4997ft 176kts
10-Jan-18 11:48 33.184938 -117.002206 176 4685ft 179kts
10-Jan-18 11:49 33.152913 -117.025382 221 3535ft 165kts
10-Jan-18 11:50 33.151257 -117.069725 281 3499ft 145kts
10-Jan-18 11:51 33.153931 -117.120717 262 3487ft 161kts
10-Jan-18 11:52 33.144865 -117.177060 259 2522ft 155kts
10-Jan-18 11:53 33.139347 -117.211375 259 1861ft 102kts
10-Jan-18 11:54 33.134147 -117.243459 259 854ft 102kts
10-Jan-18 11:55 33.129328 -117.273349 259 316ft 88kts
10-Jan-18 11:56 33.127970 -117.279381 221 309ft 0kts
10-Jan-18 11:57 33.127971 -117.279381 222 309ft 0kts
10-Jan-18 11:58 33.127922 -117.279427 219 309ft 0kts
10-Jan-18 11:59 33.127903 -117.279448 221 309ft 0kts
10-Jan-18 12:00 33.126943 -117.280645 187 310ft 0kts

Navigation Log

Ident Type
Flight plan parsing failed, navigation log unavailable